• Join FlightAware (Why Join?)
  • Login
  • US Flag 
09:46PM EDT


 

Airport Tracker/Info


-or-


 

Live Flight TrackerFlight Track Log ✈ AAL2007 ✈ 14-Jun-2013 ✈ KORD - KAUS

Flight Track Log - Related Links

Times and Time Zones

All times are in EDT time to prevent confusion due to time zone crossing. See the AAL2007 flight status page for this flight to view local times or setup timezone preferences in your user account.

Time Position Orientation Groundspeed Altitude Reporting Facility
EDT Latitude Longitude Course Direction KTS MPH feet Rate Location/Type
06:23PM 41.9500 -87.8333 207° Southwest 207 238 2,900  Level Chicago TRACON
06:24PM 41.9000 -87.7833 143° Southeast 259 298 4,500 1,860 Climbing Chicago TRACON
06:25PM 41.7032 -88.1854 201° Southwest  Level Estimated
06:25PM 41.8203 -87.7486 162° South 266 306 7,000  Level Chicago Center
06:26PM 41.6102 -88.2777 197° South  Level Estimated
06:26PM 41.7461 -87.7278 168° South 279 321 9,700  Level Chicago Center
06:27PM 41.5172 -88.3698 194° South  Level Estimated
06:27PM 41.6872 -87.7992 222° Southwest 289 333 11,900  Level Chicago Center
06:28PM 41.4241 -88.4617 207° Southwest  Level Estimated
06:28PM 41.6267 -87.8778 224° Southwest 303 349 13,900  Level Chicago Center
06:29PM 41.5506 -87.9800 225° Southwest 324 373 16,500 1,740 Climbing Chicago Center
06:30PM 41.4653 -88.0275 203° Southwest 360 414 17,500 1,080 Climbing Chicago Center
06:32PM 41.3472 -88.0936 203° Southwest 391 450 18,800 1,500 Climbing Chicago Center
06:33PM 41.2392 -88.1533 203° Southwest 416 479 20,600 1,560 Climbing Chicago Center
06:34PM 41.1289 -88.2161 203° Southwest 429 494 22,100 1,500 Climbing Chicago Center
06:35PM 41.0142 -88.2811 203° Southwest 445 512 23,700 1,440 Climbing Chicago Center
06:36PM 40.8989 -88.3450 203° Southwest 451 519 25,100 1,260 Climbing Chicago Center
06:37PM 40.7792 -88.4108 203° Southwest 464 534 26,400 1,200 Climbing Chicago Center
06:38PM 40.6594 -88.5369 219° Southwest 465 535 27,600 1,140 Climbing Chicago Center
06:39PM 40.5603 -88.6508 221° Southwest 475 547 28,800 1,380 Climbing Chicago Center
06:40PM 40.4681 -88.7511 220° Southwest 471 542 30,500 1,500 Climbing Chicago Center
06:41PM 40.3542 -88.8781 220° Southwest 448 516 32,000 720 Climbing Chicago Center
06:42PM 40.2608 -88.9806 220° Southwest 437 503 32,000  Level Chicago Center
06:43PM 40.1644 -89.0856 220° Southwest 446 513 32,000  Level Chicago Center
06:44PM 40.0875 -89.1711 220° Southwest 446 513 32,000  Level Kansas City Center
06:45PM 39.9917 -89.2750 220° Southwest 446 513 32,000  Level Kansas City Center
06:46PM 39.8944 -89.3808 220° Southwest 451 519 32,000  Level Kansas City Center
06:47PM 39.7806 -89.5056 220° Southwest 447 514 32,000  Level Kansas City Center
06:48PM 39.6894 -89.6036 220° Southwest 447 514 32,000  Level Kansas City Center
06:49PM 39.5944 -89.7053 220° Southwest 444 511 32,000  Level Kansas City Center
06:50PM 39.4994 -89.8067 219° Southwest 444 511 32,000  Level Kansas City Center
06:51PM 39.4047 -89.9086 220° Southwest 444 511 32,000  Level Kansas City Center
06:52PM 39.2897 -90.0306 219° Southwest 447 514 32,000  Level Kansas City Center
06:53PM 39.1936 -90.1331 220° Southwest 448 516 32,000  Level Kansas City Center
06:54PM 39.0994 -90.2331 220° Southwest 444 511 32,000  Level Kansas City Center
06:55PM 39.0042 -90.3328 219° Southwest 443 510 32,000  Level Kansas City Center
06:56PM 38.8972 -90.4475 220° Southwest 434 499 32,000  Level Kansas City Center
06:57PM 38.8039 -90.5458 219° Southwest 431 496 32,000  Level Kansas City Center
06:58PM 38.7142 -90.6486 222° Southwest 431 496 32,000  Level Kansas City Center
06:59PM 38.6242 -90.7572 223° Southwest 457 526 32,000  Level Kansas City Center
07:00PM 38.5339 -90.8603 222° Southwest 446 513 32,000  Level Kansas City Center
07:01PM 38.4264 -90.9828 222° Southwest 439 505 32,000  Level Kansas City Center
07:02PM 38.3333 -91.0894 222° Southwest 444 511 32,000  Level Kansas City Center
07:03PM 38.2403 -91.1950 222° Southwest 446 513 32,000  Level Kansas City Center
07:04PM 38.1400 -91.3050 221° Southwest 449 517 32,000  Level Kansas City Center
07:06PM 38.0464 -91.4106 222° Southwest 448 516 32,000  Level Kansas City Center
07:07PM 37.9542 -91.5144 222° Southwest 442 509 32,000  Level Kansas City Center
07:08PM 37.8631 -91.6183 222° Southwest 438 504 32,000  Level Kansas City Center
07:09PM 37.7708 -91.7217 222° Southwest 439 505 32,000  Level Kansas City Center
07:10PM 37.6594 -91.8461 222° Southwest 441 507 32,000  Level Kansas City Center
07:11PM 37.5664 -91.9492 221° Southwest 440 506 32,000  Level Kansas City Center
07:12PM 37.4728 -92.0544 222° Southwest 445 512 32,000  Level Kansas City Center
07:13PM 37.3778 -92.1583 221° Southwest 447 514 32,000  Level Kansas City Center
07:14PM 37.2847 -92.2608 221° Southwest 444 511 32,000  Level Kansas City Center
07:15PM 37.1906 -92.3631 221° Southwest 444 511 32,000 60 Level Kansas City Center
07:16PM 37.0958 -92.4667 221° Southwest 448 516 32,200 480 Climbing Kansas City Center
07:17PM 37.0044 -92.5656 221° Southwest 438 504 33,000 780 Climbing Kansas City Center
07:18PM 36.8944 -92.6847 221° Southwest 435 501 33,900 420 Climbing Kansas City Center
07:19PM 36.7986 -92.7803 219° Southwest 439 505 34,000  Climbing Kansas City Center
07:20PM 36.6961 -92.8650 214° Southwest 442 509 34,000  Level Kansas City Center
07:21PM 36.5956 -92.9533 215° Southwest 440 506 34,000  Level Kansas City Center
07:22PM 36.4883 -93.0475 215° Southwest 440 506 34,000  Level Kansas City Center
07:23PM 36.3892 -93.1350 215° Southwest 439 505 34,000  Level Kansas City Center
07:24PM 36.2883 -93.2228 215° Southwest 442 509 34,000  Level Kansas City Center
07:25PM 36.1606 -93.3339 215° Southwest 452 520 34,000  Level Memphis Center
07:26PM 36.0606 -93.4228 216° Southwest 452 520 34,000  Level Memphis Center
07:27PM 35.9603 -93.5086 215° Southwest 447 514 34,000  Level Memphis Center
07:28PM 35.8708 -93.5847 215° Southwest 447 514 34,000  Level Memphis Center
07:29PM 35.7706 -93.6728 215° Southwest 447 514 34,000  Level Memphis Center
07:30PM 35.6703 -93.7558 214° Southwest 447 514 34,000  Level Memphis Center
07:31PM 35.5678 -93.8433 215° Southwest 452 520 34,000  Level Memphis Center
07:32PM 35.4672 -93.9311 215° Southwest 452 520 34,000  Level Memphis Center
07:33PM 35.3669 -94.0133 214° Southwest 452 520 34,000  Level Memphis Center
07:34PM 35.2686 -94.0956 214° Southwest 446 513 34,000  Level Memphis Center
07:35PM 35.1658 -94.1822 215° Southwest 446 513 34,000  Level Memphis Center
07:36PM 35.0694 -94.2642 215° Southwest 446 513 34,000  Level Memphis Center
07:37PM 34.9664 -94.3481 214° Southwest 441 507 34,000  Level Memphis Center
07:40PM 34.7311 -94.5483 215° Southwest 422 486 34,000  Level Fort Worth Center
07:41PM 34.6308 -94.6350 215° Southwest 437 503 34,000  Level Fort Worth Center
07:42PM 34.5303 -94.7164 214° Southwest 437 503 34,000  Level Fort Worth Center
07:43PM 34.4258 -94.8003 214° Southwest 444 511 34,000  Level Fort Worth Center
07:44PM 34.3253 -94.8861 215° Southwest 444 511 34,000  Level Fort Worth Center
07:45PM 34.2247 -94.9694 214° Southwest 444 511 34,000  Level Fort Worth Center
07:46PM 34.1200 -95.0528 213° Southwest 444 511 34,000  Level Fort Worth Center
07:47PM 34.0192 -95.1356 214° Southwest 444 511 34,000  Level Fort Worth Center
07:48PM 33.9164 -95.2183 214° Southwest 444 511 34,000  Level Fort Worth Center
07:49PM 33.8133 -95.3011 214° Southwest 444 511 34,000  Level Fort Worth Center
07:50PM 33.7125 -95.3833 214° Southwest 444 511 34,000  Level Fort Worth Center
07:51PM 33.6094 -95.4631 213° Southwest 438 504 34,000  Level Fort Worth Center
07:52PM 33.5083 -95.5450 214° Southwest 438 504 34,000  Level Fort Worth Center
07:53PM 33.4156 -95.6142 212° Southwest 438 504 34,000  Level Fort Worth Center
07:54PM 33.3186 -95.6958 215° Southwest 433 498 34,000  Level Fort Worth Center
07:55PM 33.2172 -95.7747 213° Southwest 433 498 34,000  Level Fort Worth Center
07:56PM 33.1119 -95.8558 213° Southwest 438 504 34,000  Level Fort Worth Center
07:57PM 33.0106 -95.9369 214° Southwest 438 504 34,000  Level Fort Worth Center
07:58PM 32.9111 -96.0153 213° Southwest 438 504 34,000  Level Fort Worth Center
07:59PM 32.8097 -96.0958 214° Southwest 438 504 34,000  Level Fort Worth Center
08:00PM 32.7022 -96.1814 214° Southwest 438 504 34,000  Level Fort Worth Center
08:01PM 32.6111 -96.2789 222° Southwest 438 504 34,000  Level Fort Worth Center
08:02PM 32.5392 -96.3931 233° Southwest 426 490 34,000  Level Fort Worth Center
08:03PM 32.4647 -96.5047 232° Southwest 437 503 34,000  Level Fort Worth Center
08:04PM 32.3925 -96.6211 234° Southwest 442 509 34,000  Level Fort Worth Center
08:05PM 32.3200 -96.7350 233° Southwest 442 509 34,000  Level Fort Worth Center
08:06PM 32.2308 -96.8239 220° Southwest 432 497 34,000 -120 Level Fort Worth Center
08:07PM 32.1078 -96.8567 193° South 427 491 33,800 -600 Descending Fort Worth Center
08:08PM 31.9911 -96.9014 198° South 432 497 32,800 -1,440 Descending Fort Worth Center
08:09PM 31.8742 -96.9486 199° South 443 510 31,000 -1,740 Descending Fort Worth Center
08:09PM 31.8325 -96.9644 198° South 452 520 30,500 -1,680 Descending Houston Center
08:10PM 31.7117 -97.0119 198° South 454 522 28,700 -1,860 Descending Houston Center
08:11PM 31.5908 -97.0592 198° South 452 520 26,700 -1,800 Descending Houston Center
08:12PM 31.4750 -97.1056 199° South 438 504 25,000 -1,860 Descending Houston Center
08:13PM 31.3661 -97.1475 198° South 412 474 23,000 -1,620 Descending Houston Center
08:14PM 31.2594 -97.1894 199° South 403 464 21,700 -1,740 Descending Houston Center
08:15PM 31.1589 -97.2289 199° South 382 440 19,500 -2,460 Descending Houston Center
08:16PM 31.0481 -97.2722 199° South 361 415 16,700 -2,580 Descending Houston Center
08:17PM 30.9592 -97.3083 199° South 349 402 14,200 -1,800 Descending Houston Center
08:18PM 30.8681 -97.3411 197° South 348 400 13,100 -1,260 Descending Houston Center
08:19PM 30.7831 -97.3894 206° Southwest 341 392 11,700 -1,140 Descending Houston Center
08:20PM 30.7225 -97.4664 228° Southwest 323 372 10,800 -1,200 Descending Houston Center
08:21PM 30.6681 -97.5383 229° Southwest 299 344 9,300 -1,860 Descending Houston Center
08:22PM 30.5886 -97.5897 209° Southwest 285 328 7,000 -2,100 Descending Houston Center
08:23PM 30.5144 -97.6125 195° South 277 319 5,000 -1,620 Descending Houston Center
08:24PM 30.4411 -97.6344 194° South 271 312 3,700 -1,140 Descending Houston Center
08:25PM 30.3742 -97.6561 196° South 253 291 2,700 -1,020 Descending Houston Center